Airfield :
LOGIN :

Register | Disclaimer

   EN    FR    IT 

 










Legend :    VFR   Marginal VFR   IFR   Intensive IFR   Very Intensive IFR
Visi :
Ceiling :
>= 8 km
>= 3000ft
5 to 8 km
1000 to 3000 ft
1500m to 5 km
500 to 1000 ft
800 to 1500m
200 to 500 ft
< 800m
< 200 ft
Symbols :   Thunderstorms  Fog  Heavy snow  Heavy precipitations  Wind > 20 kt
SIGMETs :     Misc.  Thunderstorms  Icing  Turbulence  Mountain Waves  Volcanic Ashes







- Airport Elevation : 242 ft
- IATA code : DUB


EIDW - Dublin

CURRENT METAR :
  • 262330Z 11008KT 7000 -RADZ FEW003 BKN005 BKN010 11/11 Q1009 NOSIG

EXPIRED METARs :
  • 262300Z 10010KT 8000 -RADZ FEW003 BKN006 BKN010 11/11 Q1010 NOSIG
  • 262230Z 11010KT 9999 -RA FEW005 BKN007 BKN012 11/10 Q1010 NOSIG
  • 262200Z 11012KT 9999 -RA FEW006 SCT010 BKN020 11/10 Q1010 TEMPO BKN012
  • 262130Z 11009KT 8000 -RA FEW006 SCT018 BKN030 11/10 Q1011 TEMPO BKN012
  • 262100Z 11008KT 7000 -RA FEW006 SCT018 BKN028 11/10 Q1011 TEMPO BKN012

TAF TAF EIDW
Valid from the 27 at 00:00 until the 28 at 00:00 UTC


262300Z 2700/2724 11010KT 8000 FEW006 BKN012
BECMG 2700/2703 14010KT
TEMPO 2700/2710 4000 -RA BKN006
TEMPO 2700/2706 RA
PROB30
TEMPO 2702/2707 2500 BKN004 SCT018CB
BECMG 2708/2711 9999 BKN018
TEMPO 2712/2718 -SHRA FEW018CB
PROB40
TEMPO 2721/2724 5000 BR BKN005
No reported NOTAMs for that airfield.



MET'MAP, your aeronautical weather chart ! - Copyright ORBIFLY December 2007 - Disclaimer

ORBIFLY MET'MAP TEAM :

Programming & Development : Alexandra Zaïnal
Concept & Development : Baudouin d'Aumeries
Co-Development & Prog : Marc-Olivier Méhu
Technical & hardware support : Manuel Goepfert

Contact : metmap@orbifly.com




SOURCES & CREDITS :

   NOAA